Time;durP1;ratioP1;P1;durP2;ratioP2;P2;SDS_P1;SDS_P2;PMS_P1;PMS_P2;Temp;Humidity;BMP_temperature;BMP_pressure;BME280_temperature;BME280_humidity;BME280_pressure;Samples;Min_cycle;Max_cycle;Signal;HPM_P1;HPM_P2
2022/04/09 00:00:49;;;;;;;;;;;4.00;67.50;;;;;;5114115;27;19918;-74
2022/04/09 00:03:14;;;;;;;;;;;4.00;67.70;;;;;;5149726;27;19907;-74
2022/04/09 00:05:40;;;;;;;;;;;3.90;67.60;;;;;;5153309;27;19908;-74
2022/04/09 00:08:06;;;;;;;;;;;3.90;68.20;;;;;;5134574;27;19911;-74
2022/04/09 00:10:31;;;;;;;;;;;3.80;67.80;;;;;;5134497;27;19918;-74
2022/04/09 00:12:57;;;;;;;;;;;3.80;67.80;;;;;;5153078;27;19911;-74
2022/04/09 00:15:22;;;;;;;;;;;3.80;68.00;;;;;;5153331;27;19998;-74
2022/04/09 00:17:48;;;;;;;;;;;3.70;68.00;;;;;;5153153;27;19934;-74
2022/04/09 00:20:15;;;;;;;;;;;3.70;68.10;;;;;;5153162;27;19960;-74
2022/04/09 00:22:41;;;;;;;;;;;3.70;68.00;;;;;;5134223;27;19915;-74
2022/04/09 00:25:07;;;;;;;;;;;3.70;68.10;;;;;;5134391;27;20281;-74
2022/04/09 00:27:33;;;;;;;;;;;3.70;68.20;;;;;;5153068;27;19911;-74
2022/04/09 00:29:59;;;;;;;;;;;3.60;68.20;;;;;;5134389;27;19918;-74
2022/04/09 00:32:24;;;;;;;;;;;3.60;68.30;;;;;;5134127;27;20249;-74
2022/04/09 00:34:50;;;;;;;;;;;3.60;68.30;;;;;;5134175;27;19954;-74
2022/04/09 00:37:15;;;;;;;;;;;3.60;68.30;;;;;;5134301;27;20365;-74
2022/04/09 00:39:41;;;;;;;;;;;3.60;68.50;;;;;;5153252;27;19911;-74
2022/04/09 00:42:13;;;;;;;;;;;3.60;68.50;;;;;;5152877;27;19920;-74
2022/04/09 00:44:39;;;;;;;;;;;3.60;68.50;;;;;;5152723;27;19960;-74
2022/04/09 00:47:05;;;;;;;;;;;3.60;68.50;;;;;;5152674;27;19911;-74
2022/04/09 00:49:31;;;;;;;;;;;3.60;68.50;;;;;;5152801;27;19954;-74
2022/04/09 00:51:59;;;;;;;;;;;3.60;68.70;;;;;;5152230;27;20018;-74
2022/04/09 00:54:25;;;;;;;;;;;3.60;68.70;;;;;;5152429;27;19915;-74
2022/04/09 00:56:51;;;;;;;;;;;3.60;68.70;;;;;;5152359;27;20401;-74
2022/04/09 00:59:21;;;;;;;;;;;3.60;68.70;;;;;;5133953;27;19915;-74
2022/04/09 01:01:47;;;;;;;;;;;3.60;68.70;;;;;;5152208;27;20191;-74
2022/04/09 01:04:13;;;;;;;;;;;3.60;68.60;;;;;;5152317;27;19918;-74
2022/04/09 01:06:39;;;;;;;;;;;3.60;68.60;;;;;;5152597;27;19907;-74
2022/04/09 01:09:05;;;;;;;;;;;3.60;68.60;;;;;;5152208;27;19919;-74
2022/04/09 01:11:31;;;;;;;;;;;3.60;68.50;;;;;;5133408;27;19919;-74
2022/04/09 01:13:57;;;;;;;;;;;3.60;68.50;;;;;;5152112;27;19921;-74
2022/04/09 01:16:24;;;;;;;;;;;3.50;68.40;;;;;;5152055;27;19911;-74
2022/04/09 01:18:50;;;;;;;;;;;3.50;68.40;;;;;;5133464;27;20391;-74
2022/04/09 01:21:15;;;;;;;;;;;3.50;68.60;;;;;;5151897;27;19942;-74
2022/04/09 01:23:41;;;;;;;;;;;3.50;68.80;;;;;;5133466;27;20289;-74
2022/04/09 01:26:06;;;;;;;;;;;3.40;68.90;;;;;;5152030;27;19954;-74
2022/04/09 01:28:33;;;;;;;;;;;3.40;69.10;;;;;;5133357;27;19982;-74
2022/04/09 01:30:58;;;;;;;;;;;3.30;69.40;;;;;;5151964;27;19915;-74
2022/04/09 01:33:24;;;;;;;;;;;3.30;69.60;;;;;;5132897;27;20370;-74
2022/04/09 01:35:50;;;;;;;;;;;3.30;69.80;;;;;;5151713;27;19907;-74
2022/04/09 01:38:16;;;;;;;;;;;3.20;69.80;;;;;;5133210;27;20337;-74
2022/04/09 01:40:42;;;;;;;;;;;3.20;70.00;;;;;;5151652;27;20377;-74
2022/04/09 01:43:08;;;;;;;;;;;3.10;70.00;;;;;;5151449;27;20410;-74
2022/04/09 01:45:33;;;;;;;;;;;3.00;69.80;;;;;;5151500;27;19907;-74
2022/04/09 01:47:59;;;;;;;;;;;3.00;69.80;;;;;;5151476;27;20281;-74
2022/04/09 01:50:29;;;;;;;;;;;3.00;69.70;;;;;;5151323;27;19915;-74
2022/04/09 01:52:55;;;;;;;;;;;3.00;69.90;;;;;;5152169;27;20407;-74
2022/04/09 01:55:21;;;;;;;;;;;3.00;70.00;;;;;;5151484;27;19911;-74
2022/04/09 01:57:48;;;;;;;;;;;3.00;70.20;;;;;;5132714;27;20372;-74
2022/04/09 02:00:14;;;;;;;;;;;2.90;70.20;;;;;;5151156;27;19911;-74
2022/04/09 02:02:40;;;;;;;;;;;2.90;70.40;;;;;;5132744;27;20059;-74
2022/04/09 02:05:06;;;;;;;;;;;2.90;70.50;;;;;;5151074;27;19949;-74
2022/04/09 02:07:32;;;;;;;;;;;2.80;70.60;;;;;;5151101;27;19987;-74
2022/04/09 02:09:57;;;;;;;;;;;2.80;70.70;;;;;;5151024;27;19919;-74
2022/04/09 02:12:23;;;;;;;;;;;2.70;70.60;;;;;;5150869;27;19986;-74
2022/04/09 02:14:48;;;;;;;;;;;2.70;70.60;;;;;;5150778;27;19918;-73
2022/04/09 02:17:14;;;;;;;;;;;2.70;70.60;;;;;;5151009;27;19990;-74
2022/04/09 02:19:40;;;;;;;;;;;2.70;70.50;;;;;;5150851;27;20268;-74
2022/04/09 02:22:05;;;;;;;;;;;2.60;70.40;;;;;;5150702;27;19972;-74
2022/04/09 02:24:31;;;;;;;;;;;2.60;70.30;;;;;;5150871;27;19907;-74
2022/04/09 02:26:57;;;;;;;;;;;2.60;70.30;;;;;;5150203;27;19926;-74
2022/04/09 02:29:22;;;;;;;;;;;2.60;70.50;;;;;;5150633;27;20364;-74
2022/04/09 02:31:48;;;;;;;;;;;2.60;70.50;;;;;;5150596;27;19919;-74
2022/04/09 02:34:14;;;;;;;;;;;2.60;70.60;;;;;;5150396;27;20392;-74
2022/04/09 02:36:39;;;;;;;;;;;2.60;70.70;;;;;;5150533;27;19993;-74
2022/04/09 02:39:05;;;;;;;;;;;2.60;70.80;;;;;;5150584;27;20365;-74
2022/04/09 02:41:31;;;;;;;;;;;2.60;70.80;;;;;;5150464;27;19910;-74
2022/04/09 02:43:57;;;;;;;;;;;2.50;70.60;;;;;;5150431;27;20361;-74
2022/04/09 02:46:23;;;;;;;;;;;2.50;70.60;;;;;;5150325;27;19970;-74
2022/04/09 02:48:48;;;;;;;;;;;2.50;70.60;;;;;;5150426;27;19907;-74
2022/04/09 02:51:14;;;;;;;;;;;2.50;70.60;;;;;;5150249;27;19911;-74
2022/04/09 02:53:40;;;;;;;;;;;2.50;70.80;;;;;;5150292;27;20272;-74
2022/04/09 02:56:05;;;;;;;;;;;2.40;70.90;;;;;;5150157;27;19956;-74
2022/04/09 02:58:31;;;;;;;;;;;2.40;70.90;;;;;;5150180;27;19991;-74
2022/04/09 03:00:56;;;;;;;;;;;2.40;71.00;;;;;;5131704;27;19922;-74
2022/04/09 03:03:22;;;;;;;;;;;2.40;71.30;;;;;;5150061;27;19952;-74
2022/04/09 03:05:48;;;;;;;;;;;2.40;71.40;;;;;;5131482;27;19938;-74
2022/04/09 03:08:13;;;;;;;;;;;2.30;71.40;;;;;;5149984;27;19919;-74
2022/04/09 03:10:39;;;;;;;;;;;2.30;71.50;;;;;;5149996;27;19922;-74
2022/04/09 03:13:04;;;;;;;;;;;2.30;71.60;;;;;;5149831;27;20349;-74
2022/04/09 03:15:30;;;;;;;;;;;2.20;71.50;;;;;;5131495;27;19911;-74
2022/04/09 03:17:56;;;;;;;;;;;2.20;71.60;;;;;;5131456;27;19915;-74
2022/04/09 03:20:21;;;;;;;;;;;2.20;71.70;;;;;;5149864;27;19911;-74
2022/04/09 03:22:48;;;;;;;;;;;2.20;71.80;;;;;;5149637;27;20265;-74
2022/04/09 03:25:13;;;;;;;;;;;2.20;72.10;;;;;;5150008;27;19907;-74
2022/04/09 03:27:39;;;;;;;;;;;2.20;72.20;;;;;;5149784;27;20351;-74
2022/04/09 03:30:08;;;;;;;;;;;2.10;72.20;;;;;;5131214;27;19908;-74
2022/04/09 03:32:37;;;;;;;;;;;2.10;72.40;;;;;;5149794;27;20327;-74
2022/04/09 03:35:04;;;;;;;;;;;2.20;72.50;;;;;;5149876;27;19915;-74
2022/04/09 03:37:30;;;;;;;;;;;2.10;72.40;;;;;;5149783;27;19914;-74
2022/04/09 03:39:55;;;;;;;;;;;2.10;72.40;;;;;;5153242;27;19915;-74
2022/04/09 03:42:21;;;;;;;;;;;2.10;72.50;;;;;;5153813;27;19918;-74
2022/04/09 03:44:46;;;;;;;;;;;2.10;72.50;;;;;;5154138;27;20009;-74
2022/04/09 03:47:12;;;;;;;;;;;2.10;72.60;;;;;;5153953;27;19919;-74
2022/04/09 03:49:37;;;;;;;;;;;2.10;72.80;;;;;;5135320;27;19917;-74
2022/04/09 03:52:03;;;;;;;;;;;2.00;72.80;;;;;;5153548;27;19963;-74
2022/04/09 03:54:30;;;;;;;;;;;2.00;73.00;;;;;;5135046;27;20385;-74
2022/04/09 03:56:56;;;;;;;;;;;2.00;73.10;;;;;;5153666;27;19911;-74
2022/04/09 03:59:21;;;;;;;;;;;2.00;73.10;;;;;;5153728;27;19914;-74
2022/04/09 04:01:47;;;;;;;;;;;2.00;73.30;;;;;;5153600;27;19918;-74
2022/04/09 04:04:13;;;;;;;;;;;2.00;73.50;;;;;;5153571;27;19912;-74
2022/04/09 04:06:40;;;;;;;;;;;1.90;73.20;;;;;;5153550;27;19915;-74
2022/04/09 04:09:06;;;;;;;;;;;1.90;73.00;;;;;;5153566;27;20002;-74
2022/04/09 04:11:32;;;;;;;;;;;1.90;73.20;;;;;;5153199;27;20372;-74
2022/04/09 04:13:57;;;;;;;;;;;1.90;73.40;;;;;;5153257;27;20318;-74
2022/04/09 04:16:23;;;;;;;;;;;1.90;73.50;;;;;;5153378;27;20258;-74
2022/04/09 04:18:49;;;;;;;;;;;1.90;73.50;;;;;;5117589;27;19949;-74
2022/04/09 04:21:15;;;;;;;;;;;1.90;73.60;;;;;;5153181;27;19935;-74
2022/04/09 04:23:40;;;;;;;;;;;1.90;73.70;;;;;;5153247;27;20360;-74
2022/04/09 04:26:06;;;;;;;;;;;1.80;73.70;;;;;;5134510;27;19915;-74
2022/04/09 04:28:31;;;;;;;;;;;1.80;73.90;;;;;;5153012;27;19997;-74
2022/04/09 04:30:57;;;;;;;;;;;1.90;74.20;;;;;;5153030;27;20373;-74
2022/04/09 04:33:22;;;;;;;;;;;1.90;74.30;;;;;;5152086;27;20409;-74
2022/04/09 04:35:48;;;;;;;;;;;1.90;74.50;;;;;;5151775;27;20016;-75
2022/04/09 04:38:13;;;;;;;;;;;1.90;74.50;;;;;;5151516;27;19918;-74
2022/04/09 04:40:39;;;;;;;;;;;1.90;74.50;;;;;;5151418;27;20454;-74
2022/04/09 04:43:05;;;;;;;;;;;1.90;75.00;;;;;;5151531;27;20340;-74
2022/04/09 04:45:31;;;;;;;;;;;1.90;74.80;;;;;;5133123;27;19971;-74
2022/04/09 04:47:56;;;;;;;;;;;1.90;74.80;;;;;;5132920;27;19911;-74
2022/04/09 04:50:22;;;;;;;;;;;1.90;74.90;;;;;;5151107;27;20276;-74
2022/04/09 04:52:48;;;;;;;;;;;1.90;74.80;;;;;;5151355;27;19910;-74
2022/04/09 04:55:14;;;;;;;;;;;1.90;74.90;;;;;;5151271;27;19915;-74
2022/04/09 04:57:41;;;;;;;;;;;1.90;75.20;;;;;;5151600;27;19975;-74
2022/04/09 05:00:08;;;;;;;;;;;1.90;75.30;;;;;;5151503;27;19911;-74
2022/04/09 05:02:34;;;;;;;;;;;1.90;75.30;;;;;;5151352;27;19912;-74
2022/04/09 05:05:01;;;;;;;;;;;1.90;75.50;;;;;;5151112;27;19919;-74
2022/04/09 05:07:56;;;;;;;;;;;2.00;75.70;;;;;;5132995;27;19915;-74
2022/04/09 05:10:23;;;;;;;;;;;2.00;75.70;;;;;;5119111;27;20381;-74
2022/04/09 05:12:49;;;;;;;;;;;1.90;75.90;;;;;;5151081;27;19990;-74
2022/04/09 05:15:15;;;;;;;;;;;1.90;76.00;;;;;;5132327;27;19911;-74
2022/04/09 05:17:41;;;;;;;;;;;1.90;76.00;;;;;;5151130;27;19911;-74
2022/04/09 05:20:08;;;;;;;;;;;1.90;76.20;;;;;;5132378;27;19956;-74
2022/04/09 05:22:36;;;;;;;;;;;1.90;76.20;;;;;;5150824;27;19910;-74
2022/04/09 05:25:03;;;;;;;;;;;1.90;76.40;;;;;;5150923;27;19964;-74
2022/04/09 05:27:28;;;;;;;;;;;1.90;76.50;;;;;;5150924;27;19968;-74
2022/04/09 05:29:54;;;;;;;;;;;1.80;76.50;;;;;;5150870;27;19911;-74
2022/04/09 05:32:19;;;;;;;;;;;1.80;76.60;;;;;;5150650;27;20281;-74
2022/04/09 05:34:46;;;;;;;;;;;1.90;76.80;;;;;;5072858;27;2191870;-74
2022/04/09 05:37:12;;;;;;;;;;;1.90;76.70;;;;;;5151742;27;19919;-74
2022/04/09 05:39:37;;;;;;;;;;;1.90;76.80;;;;;;5151725;27;19918;-74
2022/04/09 05:42:03;;;;;;;;;;;1.90;76.70;;;;;;5151800;27;19907;-74
2022/04/09 05:44:29;;;;;;;;;;;1.90;76.70;;;;;;5151634;27;19943;-74
2022/04/09 05:46:54;;;;;;;;;;;1.90;76.70;;;;;;5152003;27;19950;-74
2022/04/09 05:49:20;;;;;;;;;;;1.90;76.70;;;;;;5151920;27;19919;-74
2022/04/09 05:51:47;;;;;;;;;;;1.90;76.60;;;;;;5151203;27;19919;-74
2022/04/09 05:54:12;;;;;;;;;;;2.00;76.70;;;;;;5133120;27;20272;-74
2022/04/09 05:56:38;;;;;;;;;;;2.00;76.70;;;;;;5151658;27;19908;-74
2022/04/09 05:59:03;;;;;;;;;;;2.00;76.80;;;;;;5115627;27;19934;-74
2022/04/09 06:01:29;;;;;;;;;;;2.10;76.70;;;;;;5150475;27;19963;-74
2022/04/09 06:03:55;;;;;;;;;;;2.10;76.70;;;;;;5132841;27;19911;-74
2022/04/09 06:06:21;;;;;;;;;;;2.20;76.60;;;;;;5151134;27;19923;-74
2022/04/09 06:08:48;;;;;;;;;;;2.20;76.50;;;;;;5151064;27;19907;-74
2022/04/09 06:11:14;;;;;;;;;;;2.30;76.60;;;;;;5132428;27;19925;-74
2022/04/09 06:13:39;;;;;;;;;;;2.30;76.50;;;;;;5151221;27;19907;-74
2022/04/09 06:16:08;;;;;;;;;;;2.40;76.60;;;;;;5151071;27;19907;-74
2022/04/09 06:18:35;;;;;;;;;;;2.40;76.70;;;;;;5150884;27;19911;-74
2022/04/09 06:21:01;;;;;;;;;;;2.40;76.70;;;;;;5150895;27;19912;-74
2022/04/09 06:23:26;;;;;;;;;;;2.50;76.60;;;;;;5150971;27;19917;-75
2022/04/09 06:25:52;;;;;;;;;;;2.60;76.70;;;;;;5132154;27;19940;-74
2022/04/09 06:28:17;;;;;;;;;;;2.60;76.60;;;;;;5150821;27;19911;-74
2022/04/09 06:30:43;;;;;;;;;;;2.60;76.60;;;;;;5132058;27;19922;-74
2022/04/09 06:33:08;;;;;;;;;;;2.60;76.70;;;;;;5131878;27;19942;-74
2022/04/09 06:35:34;;;;;;;;;;;2.70;76.80;;;;;;5150404;27;19966;-74
2022/04/09 06:38:00;;;;;;;;;;;2.70;77.00;;;;;;5150445;27;19919;-74
2022/04/09 06:40:28;;;;;;;;;;;2.70;77.00;;;;;;5150529;27;19916;-74
2022/04/09 06:42:54;;;;;;;;;;;2.70;77.10;;;;;;5150524;27;19914;-74
2022/04/09 06:45:19;;;;;;;;;;;2.70;77.10;;;;;;5131900;27;19915;-74
2022/04/09 06:47:47;;;;;;;;;;;2.80;77.20;;;;;;5150220;27;19971;-74
2022/04/09 06:50:13;;;;;;;;;;;2.80;77.20;;;;;;5150287;27;19911;-74
2022/04/09 06:52:39;;;;;;;;;;;2.80;77.20;;;;;;5149959;27;19918;-74
2022/04/09 06:55:05;;;;;;;;;;;2.90;77.40;;;;;;5150161;27;20296;-74
2022/04/09 06:57:32;;;;;;;;;;;2.90;77.30;;;;;;5150236;27;20333;-74
2022/04/09 06:59:59;;;;;;;;;;;3.00;77.50;;;;;;5149897;27;19949;-74
2022/04/09 07:02:24;;;;;;;;;;;3.00;77.50;;;;;;5150417;27;19993;-74
2022/04/09 07:04:50;;;;;;;;;;;3.00;77.50;;;;;;5150213;27;19999;-74
2022/04/09 07:07:20;;;;;;;;;;;3.10;77.60;;;;;;5131437;27;19921;-74
2022/04/09 07:09:45;;;;;;;;;;;3.30;78.00;;;;;;5131209;27;20278;-74
2022/04/09 07:12:11;;;;;;;;;;;3.70;78.30;;;;;;5149792;27;19980;-74
2022/04/09 07:14:36;;;;;;;;;;;3.90;77.30;;;;;;5149932;27;19915;-74
2022/04/09 07:17:03;;;;;;;;;;;4.00;76.90;;;;;;5149751;27;19927;-74
2022/04/09 07:19:29;;;;;;;;;;;3.90;76.70;;;;;;5150018;27;19933;-74
2022/04/09 07:21:54;;;;;;;;;;;4.00;76.90;;;;;;5149709;27;19916;-74
2022/04/09 07:24:20;;;;;;;;;;;4.20;77.50;;;;;;5149786;27;19924;-74
2022/04/09 07:26:46;;;;;;;;;;;4.50;77.90;;;;;;5131265;27;20356;-74
2022/04/09 07:29:11;;;;;;;;;;;5.00;77.60;;;;;;5149565;27;20318;-74
2022/04/09 07:31:37;;;;;;;;;;;5.50;77.30;;;;;;5149458;27;19916;-74
2022/04/09 07:34:03;;;;;;;;;;;5.90;76.60;;;;;;5130845;27;19923;-74
2022/04/09 07:36:29;;;;;;;;;;;6.10;76.40;;;;;;5149715;27;20388;-74
2022/04/09 07:38:55;;;;;;;;;;;6.40;76.40;;;;;;5130960;27;19911;-74
2022/04/09 07:41:21;;;;;;;;;;;6.50;75.90;;;;;;5149273;27;20388;-74
2022/04/09 07:43:47;;;;;;;;;;;6.50;75.80;;;;;;5149536;27;19998;-74
2022/04/09 07:46:12;;;;;;;;;;;6.70;76.60;;;;;;5149326;27;19915;-74
2022/04/09 07:48:38;;;;;;;;;;;7.20;77.30;;;;;;5149451;27;19911;-74
2022/04/09 07:51:03;;;;;;;;;;;8.00;78.70;;;;;;5149097;27;20361;-75
2022/04/09 07:53:29;;;;;;;;;;;9.20;79.30;;;;;;5149093;27;19911;-75
2022/04/09 07:55:54;;;;;;;;;;;10.60;79.20;;;;;;5130549;27;20369;-75
2022/04/09 07:58:20;;;;;;;;;;;12.10;78.40;;;;;;5149051;27;19915;-75
2022/04/09 08:00:46;;;;;;;;;;;13.30;77.70;;;;;;5149011;27;19968;-75
2022/04/09 08:03:11;;;;;;;;;;;14.40;77.10;;;;;;5148638;27;20353;-75
2022/04/09 08:05:37;;;;;;;;;;;15.30;75.70;;;;;;5129793;27;20233;-72
2022/04/09 08:08:04;;;;;;;;;;;15.90;74.00;;;;;;5148697;27;19913;-73
2022/04/09 08:10:30;;;;;;;;;;;16.40;73.20;;;;;;5148238;27;19914;-75
2022/04/09 08:12:56;;;;;;;;;;;16.70;71.20;;;;;;5148209;27;20005;-73
2022/04/09 08:15:23;;;;;;;;;;;16.90;70.80;;;;;;5148386;27;19911;-73
2022/04/09 08:17:48;;;;;;;;;;;17.10;70.60;;;;;;5148524;27;19915;-73
2022/04/09 08:20:14;;;;;;;;;;;17.40;70.60;;;;;;5129770;27;19974;-73
2022/04/09 08:22:40;;;;;;;;;;;17.60;70.30;;;;;;5148686;27;19991;-73
2022/04/09 08:25:06;;;;;;;;;;;18.00;71.80;;;;;;5131219;27;19930;-73
2022/04/09 08:27:32;;;;;;;;;;;18.40;69.90;;;;;;5151867;27;19911;-73
2022/04/09 08:29:58;;;;;;;;;;;18.60;71.10;;;;;;5152175;27;20289;-73
2022/04/09 08:32:25;;;;;;;;;;;19.10;71.60;;;;;;5152093;27;19919;-74
2022/04/09 08:34:52;;;;;;;;;;;19.50;70.90;;;;;;5152054;27;20005;-74
2022/04/09 08:37:18;;;;;;;;;;;19.80;70.90;;;;;;5152411;27;19907;-74
2022/04/09 08:39:43;;;;;;;;;;;20.20;71.70;;;;;;5134715;27;19999;-75
2022/04/09 08:42:09;;;;;;;;;;;20.60;72.00;;;;;;5152439;27;19954;-75
2022/04/09 08:44:35;;;;;;;;;;;20.90;69.90;;;;;;5151957;27;19907;-75
2022/04/09 08:47:01;;;;;;;;;;;21.00;70.70;;;;;;5152523;27;19915;-75
2022/04/09 08:49:28;;;;;;;;;;;21.30;71.40;;;;;;5153017;27;19989;-76
2022/04/09 08:51:54;;;;;;;;;;;21.50;70.40;;;;;;5152625;27;19950;-75
2022/04/09 08:54:19;;;;;;;;;;;21.60;69.20;;;;;;5152438;27;20329;-75
2022/04/09 08:56:51;;;;;;;;;;;21.70;70.30;;;;;;5151671;27;19917;-75
2022/04/09 08:59:17;;;;;;;;;;;22.00;71.30;;;;;;5132196;27;19915;-75
2022/04/09 09:01:43;;;;;;;;;;;22.40;71.40;;;;;;5132654;27;19912;-75
2022/04/09 09:04:08;;;;;;;;;;;22.50;66.90;;;;;;5132637;27;19959;-76
2022/04/09 09:06:40;;;;;;;;;;;22.50;68.10;;;;;;5151903;27;19911;-75
2022/04/09 09:09:06;;;;;;;;;;;22.60;69.40;;;;;;5152117;27;19952;-75
2022/04/09 09:11:45;;;;;;;;;;;22.90;68.50;;;;;;5113685;27;19988;-75
2022/04/09 09:14:11;;;;;;;;;;;23.00;67.80;;;;;;5130983;27;19957;-75
2022/04/09 09:16:37;;;;;;;;;;;22.90;65.40;;;;;;5132557;27;19911;-74
2022/04/09 09:19:04;;;;;;;;;;;23.00;66.40;;;;;;5150812;27;19955;-75
2022/04/09 09:21:30;;;;;;;;;;;23.10;65.40;;;;;;5151200;27;19907;-75
2022/04/09 09:24:13;;;;;;;;;;;23.20;65.10;;;;;;5150962;27;19914;-75
2022/04/09 09:26:38;;;;;;;;;;;23.30;63.70;;;;;;5151084;27;19998;-75
2022/04/09 09:29:04;;;;;;;;;;;23.20;63.60;;;;;;5150999;27;20001;-75
2022/04/09 09:31:43;;;;;;;;;;;23.40;64.80;;;;;;5132076;27;19916;-75
2022/04/09 09:34:13;;;;;;;;;;;23.60;64.50;;;;;;5132039;27;19929;-75
2022/04/09 09:36:40;;;;;;;;;;;23.80;62.50;;;;;;5149728;27;19907;-75
2022/04/09 09:39:07;;;;;;;;;;;23.90;63.70;;;;;;5150230;27;19921;-75
2022/04/09 09:41:33;;;;;;;;;;;24.20;63.30;;;;;;5149475;27;20081;-75
2022/04/09 09:44:05;;;;;;;;;;;24.40;64.00;;;;;;5149930;27;19955;-75
2022/04/09 09:46:31;;;;;;;;;;;24.60;63.10;;;;;;5149212;27;19965;-74
2022/04/09 09:48:57;;;;;;;;;;;24.80;62.00;;;;;;5149899;27;20051;-74
2022/04/09 09:51:23;;;;;;;;;;;24.80;60.50;;;;;;5149943;27;19994;-75
2022/04/09 09:53:49;;;;;;;;;;;24.80;61.20;;;;;;5150527;27;19918;-75
2022/04/09 09:56:31;;;;;;;;;;;25.10;62.40;;;;;;5150472;27;19922;-76
2022/04/09 09:58:57;;;;;;;;;;;25.50;61.80;;;;;;5131924;27;20541;-73
2022/04/09 10:01:23;;;;;;;;;;;25.90;61.50;;;;;;5150473;27;19939;-76
2022/04/09 10:03:49;;;;;;;;;;;25.90;61.40;;;;;;5132687;27;19993;-74
2022/04/09 10:06:15;;;;;;;;;;;25.50;61.70;;;;;;5131808;27;19921;-74
2022/04/09 10:08:40;;;;;;;;;;;25.30;59.40;;;;;;5150811;27;19926;-74
2022/04/09 10:11:07;;;;;;;;;;;24.30;60.10;;;;;;5150770;27;20056;-76
2022/04/09 10:13:34;;;;;;;;;;;23.40;60.00;;;;;;5151047;27;19914;-74
2022/04/09 10:16:01;;;;;;;;;;;22.80;60.20;;;;;;5150461;27;19971;-75
2022/04/09 10:18:27;;;;;;;;;;;23.10;61.30;;;;;;5150846;27;20349;-76
2022/04/09 10:20:59;;;;;;;;;;;23.80;59.50;;;;;;5150723;27;19922;-74
2022/04/09 10:23:25;;;;;;;;;;;24.30;61.00;;;;;;5150076;27;20034;-74
2022/04/09 10:25:51;;;;;;;;;;;25.20;61.50;;;;;;5131755;27;20370;-74
2022/04/09 10:28:30;;;;;;;;;;;25.50;59.30;;;;;;5150763;27;20318;-75
2022/04/09 10:30:55;;;;;;;;;;;24.80;58.50;;;;;;5130333;27;20261;-74
2022/04/09 10:33:22;;;;;;;;;;;23.90;59.20;;;;;;5150654;27;19923;-75
2022/04/09 10:35:48;;;;;;;;;;;23.30;58.50;;;;;;5150073;27;20293;-74
2022/04/09 10:38:22;;;;;;;;;;;22.20;58.30;;;;;;5150019;27;19968;-74
2022/04/09 10:40:53;;;;;;;;;;;21.10;58.10;;;;;;5147256;27;19995;-74
2022/04/09 10:43:39;;;;;;;;;;;20.00;58.70;;;;;;5131246;27;20145;-73
2022/04/09 10:46:06;;;;;;;;;;;19.90;60.80;;;;;;5148810;27;19907;-74
2022/04/09 10:48:32;;;;;;;;;;;21.00;62.40;;;;;;5149306;27;19907;-74
2022/04/09 10:50:58;;;;;;;;;;;22.20;62.60;;;;;;5149228;27;20285;-72
2022/04/09 10:53:28;;;;;;;;;;;23.30;60.60;;;;;;5149058;27;19911;-74
2022/04/09 10:56:14;;;;;;;;;;;24.20;60.30;;;;;;5149186;27;19914;-73
2022/04/09 10:59:02;;;;;;;;;;;24.90;60.60;;;;;;5136949;27;19915;-75
2022/04/09 11:01:49;;;;;;;;;;;25.10;60.00;;;;;;5129109;27;20406;-73
2022/04/09 11:04:50;;;;;;;;;;;25.00;58.50;;;;;;5119713;27;19911;-74
2022/04/09 11:07:17;;;;;;;;;;;25.00;58.60;;;;;;5129533;27;20002;-74
2022/04/09 11:09:56;;;;;;;;;;;24.50;57.50;;;;;;5108929;27;19994;-74
2022/04/09 11:12:28;;;;;;;;;;;23.70;55.70;;;;;;5152241;27;19919;-75
2022/04/09 11:14:55;;;;;;;;;;;23.20;56.30;;;;;;5148461;27;20340;-72
2022/04/09 11:17:27;;;;;;;;;;;23.30;58.30;;;;;;5147548;27;19907;-72
2022/04/09 11:19:53;;;;;;;;;;;23.70;58.40;;;;;;5148482;27;20396;-72
2022/04/09 11:22:29;;;;;;;;;;;24.10;58.90;;;;;;5148927;27;19999;-73
2022/04/09 11:24:54;;;;;;;;;;;23.30;57.90;;;;;;5145307;27;19952;-73
2022/04/09 11:27:20;;;;;;;;;;;21.90;58.40;;;;;;5149394;27;19922;-73
2022/04/09 11:29:46;;;;;;;;;;;20.60;58.70;;;;;;5148914;27;19919;-73
2022/04/09 11:32:18;;;;;;;;;;;19.50;59.30;;;;;;5147894;27;19990;-73
2022/04/09 11:34:55;;;;;;;;;;;19.50;61.70;;;;;;5148415;27;20269;-74
2022/04/09 11:37:21;;;;;;;;;;;20.50;62.00;;;;;;5127864;27;19972;-73
2022/04/09 11:39:48;;;;;;;;;;;22.00;62.30;;;;;;5148518;27;19911;-74
2022/04/09 11:42:14;;;;;;;;;;;23.20;58.00;;;;;;5148151;27;19911;-73
2022/04/09 11:44:40;;;;;;;;;;;24.00;59.10;;;;;;5148563;27;19960;-73
2022/04/09 11:47:09;;;;;;;;;;;24.40;57.60;;;;;;5149437;27;19911;-74
2022/04/09 11:49:34;;;;;;;;;;;24.60;56.80;;;;;;5148840;27;19908;-73
2022/04/09 11:52:00;;;;;;;;;;;24.20;56.30;;;;;;5148839;27;20495;-74
2022/04/09 11:54:29;;;;;;;;;;;23.20;57.20;;;;;;5148492;27;19983;-72
2022/04/09 11:56:55;;;;;;;;;;;23.00;58.90;;;;;;5149121;27;19990;-75
2022/04/09 11:59:21;;;;;;;;;;;23.30;59.60;;;;;;5149304;27;20011;-73
2022/04/09 12:01:47;;;;;;;;;;;23.70;58.10;;;;;;5152372;27;19933;-72
2022/04/09 12:04:13;;;;;;;;;;;23.90;58.30;;;;;;5133784;27;19911;-74
2022/04/09 12:06:39;;;;;;;;;;;23.70;57.90;;;;;;5152106;27;20006;-74
2022/04/09 12:09:05;;;;;;;;;;;23.70;58.30;;;;;;5152417;27;20360;-73
2022/04/09 12:11:30;;;;;;;;;;;23.60;58.00;;;;;;5152093;27;19923;-73
2022/04/09 12:14:07;;;;;;;;;;;23.10;57.40;;;;;;5152977;27;20280;-73
2022/04/09 12:16:37;;;;;;;;;;;22.30;57.60;;;;;;5152740;27;20261;-74
2022/04/09 12:19:09;;;;;;;;;;;21.90;56.50;;;;;;5152267;27;19907;-73
2022/04/09 12:21:35;;;;;;;;;;;21.40;56.00;;;;;;5150714;27;19915;-73
2022/04/09 12:24:08;;;;;;;;;;;20.90;56.20;;;;;;5151584;27;19911;-73
2022/04/09 12:26:44;;;;;;;;;;;20.30;56.70;;;;;;5131469;27;19918;-73
2022/04/09 12:29:17;;;;;;;;;;;20.70;57.40;;;;;;5150731;27;20391;-73
2022/04/09 12:31:44;;;;;;;;;;;21.50;57.40;;;;;;5151892;27;19918;-73
2022/04/09 12:34:10;;;;;;;;;;;22.20;57.20;;;;;;5151825;27;19992;-74
2022/04/09 12:36:41;;;;;;;;;;;23.00;56.20;;;;;;5152041;27;19914;-74
2022/04/09 12:39:25;;;;;;;;;;;23.60;53.80;;;;;;5152175;27;19922;-73
2022/04/09 12:41:51;;;;;;;;;;;23.80;52.20;;;;;;5151203;27;19931;-74
2022/04/09 12:44:26;;;;;;;;;;;24.00;52.70;;;;;;5133409;27;19915;-74
2022/04/09 12:46:53;;;;;;;;;;;24.20;52.90;;;;;;5133154;27;19919;-74
2022/04/09 12:49:19;;;;;;;;;;;24.50;53.80;;;;;;5149076;27;19907;-74
2022/04/09 12:51:46;;;;;;;;;;;24.70;53.60;;;;;;5152139;27;19979;-75
2022/04/09 12:54:12;;;;;;;;;;;24.60;52.00;;;;;;5151895;27;19918;-73
2022/04/09 12:56:39;;;;;;;;;;;24.00;51.40;;;;;;5151224;27;20265;-74
2022/04/09 12:59:04;;;;;;;;;;;23.20;51.90;;;;;;5151612;27;19958;-73
2022/04/09 13:01:30;;;;;;;;;;;22.50;51.60;;;;;;5132688;27;19913;-73
2022/04/09 13:03:56;;;;;;;;;;;21.80;52.10;;;;;;5151250;27;19915;-73
2022/04/09 13:06:21;;;;;;;;;;;21.40;52.70;;;;;;5152037;27;19907;-74
2022/04/09 13:08:47;;;;;;;;;;;20.90;52.90;;;;;;5133653;27;19997;-75
2022/04/09 13:11:14;;;;;;;;;;;20.30;52.90;;;;;;5150847;27;20410;-74
2022/04/09 13:13:41;;;;;;;;;;;20.30;53.50;;;;;;5130163;27;19915;-74
2022/04/09 13:16:06;;;;;;;;;;;20.80;55.10;;;;;;5151669;27;19939;-74
2022/04/09 13:18:32;;;;;;;;;;;21.50;54.40;;;;;;5151775;27;19953;-74
2022/04/09 13:20:57;;;;;;;;;;;21.90;53.20;;;;;;5132652;27;20372;-73
2022/04/09 13:23:23;;;;;;;;;;;22.30;51.40;;;;;;5150725;27;19911;-74
2022/04/09 13:25:50;;;;;;;;;;;22.50;53.00;;;;;;5150841;27;20375;-74
2022/04/09 13:28:16;;;;;;;;;;;22.80;51.70;;;;;;5150647;27;20010;-74
2022/04/09 13:30:41;;;;;;;;;;;22.80;50.10;;;;;;5132879;27;20474;-73
2022/04/09 13:33:07;;;;;;;;;;;22.80;50.80;;;;;;5151113;27;20557;-76
2022/04/09 13:35:34;;;;;;;;;;;22.90;51.80;;;;;;5151300;27;19926;-74
2022/04/09 13:37:59;;;;;;;;;;;23.00;51.80;;;;;;5150060;27;19915;-74
2022/04/09 13:40:25;;;;;;;;;;;23.10;52.50;;;;;;5150259;27;19911;-74
2022/04/09 13:42:51;;;;;;;;;;;22.80;52.60;;;;;;5151079;27;19911;-74
2022/04/09 13:45:17;;;;;;;;;;;22.20;51.80;;;;;;5148099;27;20007;-74
2022/04/09 13:47:45;;;;;;;;;;;21.60;49.00;;;;;;5150504;27;19915;-74
2022/04/09 13:50:11;;;;;;;;;;;21.00;49.70;;;;;;5150137;27;20061;-74
2022/04/09 13:52:37;;;;;;;;;;;20.50;50.30;;;;;;5149036;27;20022;-73
2022/04/09 13:55:03;;;;;;;;;;;19.90;51.10;;;;;;5150065;27;20322;-74
2022/04/09 13:57:29;;;;;;;;;;;19.50;51.40;;;;;;5131368;27;19911;-74
2022/04/09 13:59:54;;;;;;;;;;;19.30;51.10;;;;;;5150102;27;20383;-74
2022/04/09 14:02:20;;;;;;;;;;;19.00;51.30;;;;;;5149837;27;19924;-73
2022/04/09 14:04:45;;;;;;;;;;;18.50;51.90;;;;;;5150731;27;19915;-74
2022/04/09 14:07:11;;;;;;;;;;;18.10;52.20;;;;;;5132202;27;20332;-72
2022/04/09 14:09:37;;;;;;;;;;;17.90;52.10;;;;;;5151070;27;20308;-72
2022/04/09 14:12:06;;;;;;;;;;;17.80;52.60;;;;;;5150908;27;20301;-73
2022/04/09 14:14:31;;;;;;;;;;;17.70;51.80;;;;;;5150940;27;20035;-72
2022/04/09 14:16:58;;;;;;;;;;;17.60;52.00;;;;;;5150835;27;20472;-73
2022/04/09 14:19:24;;;;;;;;;;;17.60;51.90;;;;;;5150562;27;20610;-74
2022/04/09 14:21:50;;;;;;;;;;;17.60;52.20;;;;;;5149685;27;19911;-72